sensor_id;sensor_type;location;lat;lon;timestamp;pressure;altitude;pressure_sealevel;temperature;humidity
49072;BME280;52656;52.610;10.236;2023-04-28T00:00:43;101314.56;;;5.73;53.93
49072;BME280;52656;52.610;10.236;2023-04-28T00:03:09;101319.91;;;5.65;54.57
49072;BME280;52656;52.610;10.236;2023-04-28T00:05:34;101308.59;;;5.55;54.71
49072;BME280;52656;52.610;10.236;2023-04-28T00:08:00;101314.81;;;5.50;54.82
49072;BME280;52656;52.610;10.236;2023-04-28T00:10:25;101310.50;;;5.41;54.42
49072;BME280;52656;52.610;10.236;2023-04-28T00:12:50;101316.63;;;5.40;54.15
49072;BME280;52656;52.610;10.236;2023-04-28T00:15:16;101307.16;;;5.24;53.94
49072;BME280;52656;52.610;10.236;2023-04-28T00:17:41;101303.63;;;5.25;53.91
49072;BME280;52656;52.610;10.236;2023-04-28T00:20:07;101310.63;;;5.26;54.41
49072;BME280;52656;52.610;10.236;2023-04-28T00:22:33;101313.22;;;5.29;54.78
49072;BME280;52656;52.610;10.236;2023-04-28T00:24:58;101307.09;;;5.30;54.34
49072;BME280;52656;52.610;10.236;2023-04-28T00:27:23;101305.34;;;5.29;54.53
49072;BME280;52656;52.610;10.236;2023-04-28T00:29:49;101299.25;;;5.25;54.74
49072;BME280;52656;52.610;10.236;2023-04-28T00:32:14;101293.16;;;5.22;55.11
49072;BME280;52656;52.610;10.236;2023-04-28T00:34:40;101294.88;;;5.24;54.68
49072;BME280;52656;52.610;10.236;2023-04-28T00:37:05;101285.28;;;5.23;55.00
49072;BME280;52656;52.610;10.236;2023-04-28T00:39:30;101288.78;;;5.21;55.23
49072;BME280;52656;52.610;10.236;2023-04-28T00:41:56;101289.66;;;5.21;55.63
49072;BME280;52656;52.610;10.236;2023-04-28T00:44:21;101283.53;;;5.24;55.42
49072;BME280;52656;52.610;10.236;2023-04-28T00:46:47;101282.66;;;5.23;55.35
49072;BME280;52656;52.610;10.236;2023-04-28T00:49:14;101277.34;;;5.28;54.93
49072;BME280;52656;52.610;10.236;2023-04-28T00:51:40;101278.25;;;5.25;55.38
49072;BME280;52656;52.610;10.236;2023-04-28T00:54:05;101276.47;;;5.29;54.89
49072;BME280;52656;52.610;10.236;2023-04-28T00:56:32;101268.63;;;5.24;54.35
49072;BME280;52656;52.610;10.236;2023-04-28T00:58:58;101269.53;;;5.20;54.56
49072;BME280;52656;52.610;10.236;2023-04-28T01:01:23;101259.97;;;5.15;54.57
49072;BME280;52656;52.610;10.236;2023-04-28T01:03:49;101266.03;;;5.20;54.12
49072;BME280;52656;52.610;10.236;2023-04-28T01:06:15;101258.16;;;5.23;54.62
49072;BME280;52656;52.610;10.236;2023-04-28T01:08:41;101258.09;;;5.26;53.72
49072;BME280;52656;52.610;10.236;2023-04-28T01:11:06;101258.91;;;5.34;53.50
49072;BME280;52656;52.610;10.236;2023-04-28T01:13:34;101254.50;;;5.36;53.57
49072;BME280;52656;52.610;10.236;2023-04-28T01:15:59;101256.34;;;5.26;53.61
49072;BME280;52656;52.610;10.236;2023-04-28T01:18:25;101250.25;;;5.24;53.45
49072;BME280;52656;52.610;10.236;2023-04-28T01:20:50;101253.69;;;5.29;53.25
49072;BME280;52656;52.610;10.236;2023-04-28T01:23:16;101248.50;;;5.22;53.67
49072;BME280;52656;52.610;10.236;2023-04-28T01:25:42;101256.34;;;5.28;53.20
49072;BME280;52656;52.610;10.236;2023-04-28T01:28:08;101238.91;;;5.22;53.48
49072;BME280;52656;52.610;10.236;2023-04-28T01:30:34;101246.75;;;5.24;53.13
49072;BME280;52656;52.610;10.236;2023-04-28T01:33:00;101245.81;;;5.29;53.02
49072;BME280;52656;52.610;10.236;2023-04-28T01:35:26;101244.91;;;5.30;53.32
49072;BME280;52656;52.610;10.236;2023-04-28T01:37:51;101239.72;;;5.26;53.51
49072;BME280;52656;52.610;10.236;2023-04-28T01:40:16;101245.00;;;5.21;52.58
49072;BME280;52656;52.610;10.236;2023-04-28T01:42:42;101238.03;;;5.19;52.96
49072;BME280;52656;52.610;10.236;2023-04-28T01:45:07;101237.19;;;5.18;53.02
49072;BME280;52656;52.610;10.236;2023-04-28T01:47:33;101234.63;;;5.10;53.10
49072;BME280;52656;52.610;10.236;2023-04-28T01:49:58;101233.94;;;4.89;54.04
49072;BME280;52656;52.610;10.236;2023-04-28T01:52:24;101231.28;;;4.92;53.89
49072;BME280;52656;52.610;10.236;2023-04-28T01:54:49;101224.25;;;4.94;53.68
49072;BME280;52656;52.610;10.236;2023-04-28T01:57:15;101226.97;;;4.86;53.91
49072;BME280;52656;52.610;10.236;2023-04-28T01:59:40;101220.06;;;4.71;54.06
49072;BME280;52656;52.610;10.236;2023-04-28T02:02:06;101222.78;;;4.60;54.26
49072;BME280;52656;52.610;10.236;2023-04-28T02:04:31;101223.50;;;4.79;53.89
49072;BME280;52656;52.610;10.236;2023-04-28T02:06:56;101214.78;;;4.77;53.55
49072;BME280;52656;52.610;10.236;2023-04-28T02:09:22;101215.63;;;4.79;53.83
49072;BME280;52656;52.610;10.236;2023-04-28T02:11:48;101217.50;;;4.65;54.09
49072;BME280;52656;52.610;10.236;2023-04-28T02:14:13;101211.34;;;4.72;53.58
49072;BME280;52656;52.610;10.236;2023-04-28T02:16:38;101210.56;;;4.56;54.91
49072;BME280;52656;52.610;10.236;2023-04-28T02:19:04;101208.97;;;4.34;55.32
49072;BME280;52656;52.610;10.236;2023-04-28T02:21:29;101207.22;;;4.41;54.70
49072;BME280;52656;52.610;10.236;2023-04-28T02:23:55;101204.41;;;4.62;54.22
49072;BME280;52656;52.610;10.236;2023-04-28T02:26:20;101197.47;;;4.53;54.65
49072;BME280;52656;52.610;10.236;2023-04-28T02:28:45;101200.94;;;4.60;54.39
49072;BME280;52656;52.610;10.236;2023-04-28T02:31:11;101202.72;;;4.53;54.46
49072;BME280;52656;52.610;10.236;2023-04-28T02:33:37;101199.13;;;4.67;53.73
49072;BME280;52656;52.610;10.236;2023-04-28T02:36:04;101187.84;;;4.54;54.25
49072;BME280;52656;52.610;10.236;2023-04-28T02:38:30;101188.78;;;4.50;54.77
49072;BME280;52656;52.610;10.236;2023-04-28T02:40:59;101178.16;;;4.62;54.18
49072;BME280;52656;52.610;10.236;2023-04-28T02:43:25;101179.09;;;4.53;54.47
49072;BME280;52656;52.610;10.236;2023-04-28T02:45:51;101173.78;;;4.63;54.00
49072;BME280;52656;52.610;10.236;2023-04-28T02:48:17;101172.88;;;4.67;53.96
49072;BME280;52656;52.610;10.236;2023-04-28T02:50:42;101166.78;;;4.63;53.87
49072;BME280;52656;52.610;10.236;2023-04-28T02:53:07;101168.50;;;4.69;53.54
49072;BME280;52656;52.610;10.236;2023-04-28T02:55:32;101163.19;;;4.72;53.22
49072;BME280;52656;52.610;10.236;2023-04-28T02:57:58;101157.97;;;4.70;53.72
49072;BME280;52656;52.610;10.236;2023-04-28T03:00:23;101150.09;;;4.72;53.55
49072;BME280;52656;52.610;10.236;2023-04-28T03:02:48;101155.28;;;4.76;53.36
49072;BME280;52656;52.610;10.236;2023-04-28T03:05:14;101143.16;;;4.68;53.53
49072;BME280;52656;52.610;10.236;2023-04-28T03:07:39;101149.25;;;4.70;53.31
49072;BME280;52656;52.610;10.236;2023-04-28T03:10:05;101139.59;;;4.73;53.19
49072;BME280;52656;52.610;10.236;2023-04-28T03:12:31;101127.31;;;4.77;53.02
49072;BME280;52656;52.610;10.236;2023-04-28T03:14:56;101126.38;;;4.81;53.05
49072;BME280;52656;52.610;10.236;2023-04-28T03:17:21;101120.31;;;4.77;53.23
49072;BME280;52656;52.610;10.236;2023-04-28T03:19:47;101123.75;;;4.82;53.10
49072;BME280;52656;52.610;10.236;2023-04-28T03:22:12;101114.88;;;4.94;52.76
49072;BME280;52656;52.610;10.236;2023-04-28T03:24:37;101115.78;;;4.92;53.00
49072;BME280;52656;52.610;10.236;2023-04-28T03:27:03;101114.97;;;4.86;53.04
49072;BME280;52656;52.610;10.236;2023-04-28T03:29:28;101116.47;;;5.07;52.46
49072;BME280;52656;52.610;10.236;2023-04-28T03:31:53;101114.81;;;5.00;52.58
49072;BME280;52656;52.610;10.236;2023-04-28T03:34:19;101106.75;;;5.16;52.24
49072;BME280;52656;52.610;10.236;2023-04-28T03:36:44;101111.09;;;5.20;52.05
49072;BME280;52656;52.610;10.236;2023-04-28T03:39:10;101100.75;;;5.06;52.73
49072;BME280;52656;52.610;10.236;2023-04-28T03:41:35;101102.22;;;5.30;51.83
49072;BME280;52656;52.610;10.236;2023-04-28T03:44:00;101097.22;;;5.07;52.75
49072;BME280;52656;52.610;10.236;2023-04-28T03:46:25;101100.66;;;5.15;51.85
49072;BME280;52656;52.610;10.236;2023-04-28T03:48:51;101085.72;;;5.19;52.14
49072;BME280;52656;52.610;10.236;2023-04-28T03:51:17;101090.66;;;5.43;51.55
49072;BME280;52656;52.610;10.236;2023-04-28T03:53:42;101089.78;;;5.43;51.25
49072;BME280;52656;52.610;10.236;2023-04-28T03:56:08;101083.66;;;5.44;51.97
49072;BME280;52656;52.610;10.236;2023-04-28T03:58:33;101082.75;;;5.45;51.70
49072;BME280;52656;52.610;10.236;2023-04-28T04:00:59;101082.81;;;5.42;51.67
49072;BME280;52656;52.610;10.236;2023-04-28T04:03:25;101086.16;;;5.53;51.48
49072;BME280;52656;52.610;10.236;2023-04-28T04:05:51;101083.56;;;5.51;51.42
49072;BME280;52656;52.610;10.236;2023-04-28T04:08:16;101081.81;;;5.50;51.44
49072;BME280;52656;52.610;10.236;2023-04-28T04:10:41;101083.53;;;5.54;51.47
49072;BME280;52656;52.610;10.236;2023-04-28T04:13:07;101077.38;;;5.54;51.41
49072;BME280;52656;52.610;10.236;2023-04-28T04:15:32;101079.69;;;5.75;50.90
49072;BME280;52656;52.610;10.236;2023-04-28T04:17:57;101081.47;;;5.75;51.04
49072;BME280;52656;52.610;10.236;2023-04-28T04:20:23;101077.66;;;5.94;50.75
49072;BME280;52656;52.610;10.236;2023-04-28T04:22:48;101066.72;;;6.20;49.56
49072;BME280;52656;52.610;10.236;2023-04-28T04:25:13;101079.28;;;6.03;49.98
49072;BME280;52656;52.610;10.236;2023-04-28T04:27:39;101071.34;;;6.60;49.11
49072;BME280;52656;52.610;10.236;2023-04-28T04:30:05;101063.25;;;6.71;48.45
49072;BME280;52656;52.610;10.236;2023-04-28T04:32:30;101067.06;;;6.00;50.15
49072;BME280;52656;52.610;10.236;2023-04-28T04:34:55;101058.03;;;6.17;49.94
49072;BME280;52656;52.610;10.236;2023-04-28T04:37:21;101055.50;;;6.10;50.55
49072;BME280;52656;52.610;10.236;2023-04-28T04:39:47;101054.75;;;6.02;50.61
49072;BME280;52656;52.610;10.236;2023-04-28T04:42:12;101052.19;;;5.98;50.98
49072;BME280;52656;52.610;10.236;2023-04-28T04:44:37;101056.81;;;5.83;51.33
49072;BME280;52656;52.610;10.236;2023-04-28T04:47:03;101055.94;;;5.83;51.38
49072;BME280;52656;52.610;10.236;2023-04-28T04:49:28;101056.50;;;6.02;51.27
49072;BME280;52656;52.610;10.236;2023-04-28T04:51:53;101051.91;;;6.16;50.38
49072;BME280;52656;52.610;10.236;2023-04-28T04:54:19;101053.06;;;6.00;51.01
49072;BME280;52656;52.610;10.236;2023-04-28T04:56:44;101057.81;;;5.75;51.95
49072;BME280;52656;52.610;10.236;2023-04-28T04:59:10;101054.28;;;5.76;51.92
49072;BME280;52656;52.610;10.236;2023-04-28T05:01:35;101048.13;;;6.31;51.02
49072;BME280;52656;52.610;10.236;2023-04-28T05:04:00;101041.00;;;6.39;50.68
49072;BME280;52656;52.610;10.236;2023-04-28T05:06:26;101033.19;;;6.82;49.69
49072;BME280;52656;52.610;10.236;2023-04-28T05:08:51;101028.84;;;6.81;49.57
49072;BME280;52656;52.610;10.236;2023-04-28T05:11:17;101023.06;;;7.06;49.13
49072;BME280;52656;52.610;10.236;2023-04-28T05:13:42;101027.50;;;7.04;49.37
49072;BME280;52656;52.610;10.236;2023-04-28T05:16:08;101025.44;;;7.18;48.90
49072;BME280;52656;52.610;10.236;2023-04-28T05:18:33;101024.69;;;6.68;49.54
49072;BME280;52656;52.610;10.236;2023-04-28T05:20:59;101025.13;;;6.90;49.72
49072;BME280;52656;52.610;10.236;2023-04-28T05:23:25;101027.22;;;7.18;48.94
49072;BME280;52656;52.610;10.236;2023-04-28T05:25:50;101021.59;;;7.33;48.86
49072;BME280;52656;52.610;10.236;2023-04-28T05:28:16;101026.41;;;7.14;48.32
49072;BME280;52656;52.610;10.236;2023-04-28T05:30:41;101018.44;;;8.63;45.90
49072;BME280;52656;52.610;10.236;2023-04-28T05:33:08;101015.03;;;9.20;44.42
49072;BME280;52656;52.610;10.236;2023-04-28T05:35:34;101015.81;;;9.24;44.00
49072;BME280;52656;52.610;10.236;2023-04-28T05:38:00;101004.31;;;9.81;42.90
49072;BME280;52656;52.610;10.236;2023-04-28T05:40:25;101008.03;;;9.75;43.03
49072;BME280;52656;52.610;10.236;2023-04-28T05:42:51;101001.59;;;9.56;43.16
49072;BME280;52656;52.610;10.236;2023-04-28T05:45:17;100997.34;;;10.06;42.91
49072;BME280;52656;52.610;10.236;2023-04-28T05:47:42;100997.81;;;11.63;39.47
49072;BME280;52656;52.610;10.236;2023-04-28T05:50:08;100994.94;;;13.31;36.86
49072;BME280;52656;52.610;10.236;2023-04-28T05:52:34;100993.75;;;12.98;36.80
49072;BME280;52656;52.610;10.236;2023-04-28T05:54:59;100990.03;;;13.21;36.73
49072;BME280;52656;52.610;10.236;2023-04-28T05:57:25;100985.31;;;14.53;34.43
49072;BME280;52656;52.610;10.236;2023-04-28T05:59:50;100980.25;;;15.62;32.42
49072;BME280;52656;52.610;10.236;2023-04-28T06:02:15;100989.34;;;16.35;31.30
49072;BME280;52656;52.610;10.236;2023-04-28T06:04:41;100992.00;;;15.75;31.95
49072;BME280;52656;52.610;10.236;2023-04-28T06:07:08;100975.56;;;16.13;31.92
49072;BME280;52656;52.610;10.236;2023-04-28T06:09:34;100986.69;;;15.89;31.66
49072;BME280;52656;52.610;10.236;2023-04-28T06:11:59;100988.38;;;15.76;32.01
49072;BME280;52656;52.610;10.236;2023-04-28T06:14:24;100977.78;;;16.79;30.44
49072;BME280;52656;52.610;10.236;2023-04-28T06:16:50;100966.16;;;16.50;30.43
49072;BME280;52656;52.610;10.236;2023-04-28T06:19:15;100956.72;;;16.59;31.24
49072;BME280;52656;52.610;10.236;2023-04-28T06:21:45;100964.06;;;16.11;31.72
49072;BME280;52656;52.610;10.236;2023-04-28T06:24:10;100962.09;;;15.68;31.96
49072;BME280;52656;52.610;10.236;2023-04-28T06:26:36;100954.09;;;16.29;31.93
49072;BME280;52656;52.610;10.236;2023-04-28T06:29:02;100950.31;;;16.47;31.47
49072;BME280;52656;52.610;10.236;2023-04-28T06:31:27;100954.31;;;17.25;30.14
49072;BME280;52656;52.610;10.236;2023-04-28T06:33:53;100938.94;;;18.99;28.35
49072;BME280;52656;52.610;10.236;2023-04-28T06:36:18;100944.41;;;19.47;26.73
49072;BME280;52656;52.610;10.236;2023-04-28T06:38:44;100935.44;;;20.30;26.71
49072;BME280;52656;52.610;10.236;2023-04-28T06:41:09;100935.03;;;21.15;25.17
49072;BME280;52656;52.610;10.236;2023-04-28T06:43:35;100939.03;;;20.42;25.77
49072;BME280;52656;52.610;10.236;2023-04-28T06:46:01;100953.72;;;21.39;24.75
49072;BME280;52656;52.610;10.236;2023-04-28T06:48:26;100934.97;;;19.29;26.32
49072;BME280;52656;52.610;10.236;2023-04-28T06:50:52;100936.78;;;20.13;26.48
49072;BME280;52656;52.610;10.236;2023-04-28T06:53:17;100930.63;;;21.02;25.14
49072;BME280;52656;52.610;10.236;2023-04-28T06:55:42;100930.91;;;19.36;26.22
49072;BME280;52656;52.610;10.236;2023-04-28T06:58:08;100930.78;;;21.55;24.68
49072;BME280;52656;52.610;10.236;2023-04-28T07:00:33;100932.81;;;21.31;24.74
49072;BME280;52656;52.610;10.236;2023-04-28T07:02:59;100937.75;;;21.03;25.24
49072;BME280;52656;52.610;10.236;2023-04-28T07:05:24;100931.72;;;20.77;25.16
49072;BME280;52656;52.610;10.236;2023-04-28T07:07:49;100925.84;;;19.79;26.44
49072;BME280;52656;52.610;10.236;2023-04-28T07:10:15;100927.00;;;19.88;26.11
49072;BME280;52656;52.610;10.236;2023-04-28T07:12:40;100922.59;;;20.91;24.97
49072;BME280;52656;52.610;10.236;2023-04-28T07:15:06;100913.75;;;21.55;24.93
49072;BME280;52656;52.610;10.236;2023-04-28T07:17:31;100922.91;;;20.87;25.60
49072;BME280;52656;52.610;10.236;2023-04-28T07:19:57;100910.66;;;22.03;24.44
49072;BME280;52656;52.610;10.236;2023-04-28T07:22:22;100916.91;;;20.83;25.48
49072;BME280;52656;52.610;10.236;2023-04-28T07:24:47;100907.13;;;20.93;25.76
49072;BME280;52656;52.610;10.236;2023-04-28T07:27:13;100907.13;;;20.93;25.47
49072;BME280;52656;52.610;10.236;2023-04-28T07:29:38;100901.63;;;21.17;25.44
49072;BME280;52656;52.610;10.236;2023-04-28T07:32:03;100906.91;;;21.08;25.43
49072;BME280;52656;52.610;10.236;2023-04-28T07:34:35;100896.06;;;22.97;24.03
49072;BME280;52656;52.610;10.236;2023-04-28T07:37:02;100907.81;;;19.93;26.48
49072;BME280;52656;52.610;10.236;2023-04-28T07:39:30;100902.47;;;20.50;26.20
49072;BME280;52656;52.610;10.236;2023-04-28T07:41:55;100900.16;;;20.79;25.97
49072;BME280;52656;52.610;10.236;2023-04-28T07:44:22;100906.75;;;20.42;26.13
49072;BME280;52656;52.610;10.236;2023-04-28T07:46:47;100909.19;;;20.34;26.37
49072;BME280;52656;52.610;10.236;2023-04-28T07:49:13;100911.91;;;19.98;26.88
49072;BME280;52656;52.610;10.236;2023-04-28T07:51:38;100914.91;;;20.18;26.61
49072;BME280;52656;52.610;10.236;2023-04-28T07:54:03;100906.72;;;19.60;27.53
49072;BME280;52656;52.610;10.236;2023-04-28T07:56:29;100901.28;;;20.08;26.87
49072;BME280;52656;52.610;10.236;2023-04-28T07:58:54;100905.81;;;17.84;29.68
49072;BME280;52656;52.610;10.236;2023-04-28T08:01:19;100900.44;;;18.37;29.30
49072;BME280;52656;52.610;10.236;2023-04-28T08:03:45;100896.00;;;18.10;29.51
49072;BME280;52656;52.610;10.236;2023-04-28T08:06:11;100888.81;;;18.11;29.73
49072;BME280;52656;52.610;10.236;2023-04-28T08:08:37;100893.88;;;18.41;29.79
49072;BME280;52656;52.610;10.236;2023-04-28T08:11:02;100897.75;;;18.24;29.77
49072;BME280;52656;52.610;10.236;2023-04-28T08:13:27;100889.34;;;18.16;30.05
49072;BME280;52656;52.610;10.236;2023-04-28T08:15:53;100912.69;;;16.93;31.05
49072;BME280;52656;52.610;10.236;2023-04-28T08:18:20;100899.59;;;16.88;31.42
49072;BME280;52656;52.610;10.236;2023-04-28T08:20:45;100903.84;;;17.19;31.14
49072;BME280;52656;52.610;10.236;2023-04-28T08:23:11;100893.69;;;17.24;31.35
49072;BME280;52656;52.610;10.236;2023-04-28T08:25:36;100899.06;;;17.24;30.90
49072;BME280;52656;52.610;10.236;2023-04-28T08:28:01;100901.94;;;17.21;31.28
49072;BME280;52656;52.610;10.236;2023-04-28T08:30:28;100899.84;;;17.39;30.72
49072;BME280;52656;52.610;10.236;2023-04-28T08:32:53;100893.63;;;17.12;31.33
49072;BME280;52656;52.610;10.236;2023-04-28T08:35:18;100890.13;;;17.65;30.83
49072;BME280;52656;52.610;10.236;2023-04-28T08:37:43;100895.78;;;16.92;32.33
49072;BME280;52656;52.610;10.236;2023-04-28T08:40:09;100896.72;;;16.20;32.91
49072;BME280;52656;52.610;10.236;2023-04-28T08:42:35;100891.31;;;16.36;32.37
49072;BME280;52656;52.610;10.236;2023-04-28T08:45:03;100884.81;;;16.54;32.84
49072;BME280;52656;52.610;10.236;2023-04-28T08:47:35;100884.56;;;16.00;32.93
49072;BME280;52656;52.610;10.236;2023-04-28T08:50:06;100888.91;;;16.17;32.69
49072;BME280;52656;52.610;10.236;2023-04-28T08:52:32;100887.28;;;16.43;32.16
49072;BME280;52656;52.610;10.236;2023-04-28T08:54:59;100887.50;;;16.40;32.69
49072;BME280;52656;52.610;10.236;2023-04-28T08:57:27;100878.13;;;16.47;32.77
49072;BME280;52656;52.610;10.236;2023-04-28T08:59:54;100872.97;;;16.72;32.27
49072;BME280;52656;52.610;10.236;2023-04-28T09:02:20;100874.00;;;16.41;32.81
49072;BME280;52656;52.610;10.236;2023-04-28T09:04:46;100864.56;;;16.50;32.60
49072;BME280;52656;52.610;10.236;2023-04-28T09:07:12;100871.22;;;16.43;32.79
49072;BME280;52656;52.610;10.236;2023-04-28T09:09:38;100859.84;;;16.11;33.12
49072;BME280;52656;52.610;10.236;2023-04-28T09:12:05;100864.56;;;16.36;33.00
49072;BME280;52656;52.610;10.236;2023-04-28T09:14:31;100867.31;;;16.34;32.91
49072;BME280;52656;52.610;10.236;2023-04-28T09:16:57;100853.09;;;16.62;32.64
49072;BME280;52656;52.610;10.236;2023-04-28T09:19:23;100856.72;;;16.61;32.70
49072;BME280;52656;52.610;10.236;2023-04-28T09:21:54;100848.03;;;16.58;32.95
49072;BME280;52656;52.610;10.236;2023-04-28T09:24:39;100852.91;;;16.51;32.40
49072;BME280;52656;52.610;10.236;2023-04-28T09:27:08;100845.63;;;16.10;33.07
49072;BME280;52656;52.610;10.236;2023-04-28T09:29:36;100845.94;;;16.77;32.29
49072;BME280;52656;52.610;10.236;2023-04-28T09:32:21;100839.34;;;16.83;32.25
49072;BME280;52656;52.610;10.236;2023-04-28T09:34:50;100823.13;;;17.25;31.76
49072;BME280;52656;52.610;10.236;2023-04-28T09:37:23;100833.91;;;16.56;32.35
49072;BME280;52656;52.610;10.236;2023-04-28T09:39:50;100822.38;;;16.96;31.54
49072;BME280;52656;52.610;10.236;2023-04-28T09:42:31;100825.31;;;17.06;31.74
49072;BME280;52656;52.610;10.236;2023-04-28T09:44:58;100821.22;;;17.27;31.47
49072;BME280;52656;52.610;10.236;2023-04-28T09:47:23;100829.38;;;16.99;31.92
49072;BME280;52656;52.610;10.236;2023-04-28T09:49:58;100834.31;;;15.46;33.89
49072;BME280;52656;52.610;10.236;2023-04-28T09:52:24;100813.38;;;16.97;31.77
49072;BME280;52656;52.610;10.236;2023-04-28T09:54:50;100819.91;;;17.20;31.27
49072;BME280;52656;52.610;10.236;2023-04-28T09:57:16;100812.16;;;17.43;31.38
49072;BME280;52656;52.610;10.236;2023-04-28T09:59:46;100817.69;;;17.27;31.69
49072;BME280;52656;52.610;10.236;2023-04-28T10:02:14;100811.97;;;17.46;31.55
49072;BME280;52656;52.610;10.236;2023-04-28T10:04:41;100810.88;;;17.36;31.72
49072;BME280;52656;52.610;10.236;2023-04-28T10:07:07;100800.78;;;17.79;31.61
49072;BME280;52656;52.610;10.236;2023-04-28T10:09:32;100818.63;;;16.58;32.34
49072;BME280;52656;52.610;10.236;2023-04-28T10:11:59;100811.25;;;16.61;32.48
49072;BME280;52656;52.610;10.236;2023-04-28T10:14:25;100799.13;;;16.70;33.41
49072;BME280;52656;52.610;10.236;2023-04-28T10:16:51;100797.00;;;17.29;32.13
49072;BME280;52656;52.610;10.236;2023-04-28T10:19:18;100797.56;;;17.21;32.23
49072;BME280;52656;52.610;10.236;2023-04-28T10:21:46;100795.44;;;16.99;32.31
49072;BME280;52656;52.610;10.236;2023-04-28T10:24:28;100788.25;;;16.73;32.94
49072;BME280;52656;52.610;10.236;2023-04-28T10:29:29;100801.63;;;16.59;32.96
49072;BME280;52656;52.610;10.236;2023-04-28T10:34:39;100785.38;;;16.47;33.02
49072;BME280;52656;52.610;10.236;2023-04-28T10:37:05;100786.25;;;16.34;33.75
49072;BME280;52656;52.610;10.236;2023-04-28T10:39:30;100789.41;;;16.55;33.10
49072;BME280;52656;52.610;10.236;2023-04-28T10:41:56;100788.19;;;16.32;33.48
49072;BME280;52656;52.610;10.236;2023-04-28T10:55:33;100780.28;;;15.27;37.09
49072;BME280;52656;52.610;10.236;2023-04-28T11:00:44;100770.59;;;15.10;41.42
49072;BME280;52656;52.610;10.236;2023-04-28T11:06:25;100769.25;;;14.40;41.69
49072;BME280;52656;52.610;10.236;2023-04-28T11:08:56;100764.69;;;14.42;41.32
49072;BME280;52656;52.610;10.236;2023-04-28T11:11:25;100769.53;;;14.83;41.26
49072;BME280;52656;52.610;10.236;2023-04-28T11:13:52;100778.03;;;14.89;41.23
49072;BME280;52656;52.610;10.236;2023-04-28T11:16:20;100765.88;;;15.30;38.87
49072;BME280;52656;52.610;10.236;2023-04-28T11:18:54;100769.50;;;14.67;39.40
49072;BME280;52656;52.610;10.236;2023-04-28T11:21:21;100769.41;;;14.84;39.12
49072;BME280;52656;52.610;10.236;2023-04-28T11:23:47;100767.81;;;15.58;38.14
49072;BME280;52656;52.610;10.236;2023-04-28T11:26:13;100763.22;;;15.30;38.07
49072;BME280;52656;52.610;10.236;2023-04-28T11:28:50;100769.19;;;15.79;37.35
49072;BME280;52656;52.610;10.236;2023-04-28T11:31:16;100760.38;;;15.33;38.21
49072;BME280;52656;52.610;10.236;2023-04-28T11:33:56;100754.75;;;15.07;37.93
49072;BME280;52656;52.610;10.236;2023-04-28T11:36:27;100765.44;;;15.07;37.87
49072;BME280;52656;52.610;10.236;2023-04-28T11:38:54;100762.78;;;15.37;37.58
49072;BME280;52656;52.610;10.236;2023-04-28T11:41:21;100762.72;;;15.53;37.56
49072;BME280;52656;52.610;10.236;2023-04-28T11:43:46;100759.78;;;14.97;38.31
49072;BME280;52656;52.610;10.236;2023-04-28T11:46:16;100755.59;;;15.68;37.30
49072;BME280;52656;52.610;10.236;2023-04-28T11:48:42;100761.84;;;15.83;37.42
49072;BME280;52656;52.610;10.236;2023-04-28T11:51:07;100754.31;;;16.04;36.77
49072;BME280;52656;52.610;10.236;2023-04-28T11:53:43;100760.13;;;15.82;37.78
49072;BME280;52656;52.610;10.236;2023-04-28T11:56:08;100754.50;;;15.86;39.17
49072;BME280;52656;52.610;10.236;2023-04-28T11:58:34;100762.47;;;15.72;38.50
49072;BME280;52656;52.610;10.236;2023-04-28T12:03:31;100737.81;;;16.52;37.88
49072;BME280;52656;52.610;10.236;2023-04-28T12:05:56;100738.16;;;17.02;37.71
49072;BME280;52656;52.610;10.236;2023-04-28T12:08:29;100737.88;;;16.80;36.30
49072;BME280;52656;52.610;10.236;2023-04-28T12:11:10;100742.94;;;16.29;36.72
49072;BME280;52656;52.610;10.236;2023-04-28T12:13:40;100744.63;;;16.44;37.07
49072;BME280;52656;52.610;10.236;2023-04-28T12:16:07;100743.09;;;15.68;38.24
49072;BME280;52656;52.610;10.236;2023-04-28T12:18:36;100739.47;;;16.41;37.02
49072;BME280;52656;52.610;10.236;2023-04-28T12:21:02;100731.06;;;16.88;36.90
49072;BME280;52656;52.610;10.236;2023-04-28T12:23:34;100721.91;;;17.05;36.46
49072;BME280;52656;52.610;10.236;2023-04-28T12:26:01;100724.66;;;17.31;35.56
49072;BME280;52656;52.610;10.236;2023-04-28T12:28:37;100717.31;;;17.20;36.06
49072;BME280;52656;52.610;10.236;2023-04-28T12:31:07;100723.44;;;17.35;35.35
49072;BME280;52656;52.610;10.236;2023-04-28T12:33:33;100718.81;;;17.11;35.82
49072;BME280;52656;52.610;10.236;2023-04-28T12:36:02;100713.41;;;16.86;35.64
49072;BME280;52656;52.610;10.236;2023-04-28T12:38:28;100717.00;;;16.85;35.66
49072;BME280;52656;52.610;10.236;2023-04-28T12:40:55;100714.00;;;17.04;35.70
49072;BME280;52656;52.610;10.236;2023-04-28T12:43:20;100709.25;;;17.07;35.62
49072;BME280;52656;52.610;10.236;2023-04-28T12:45:51;100708.88;;;16.59;36.10
49072;BME280;52656;52.610;10.236;2023-04-28T12:48:17;100703.03;;;16.67;36.74
49072;BME280;52656;52.610;10.236;2023-04-28T12:50:43;100703.72;;;16.56;37.30
49072;BME280;52656;52.610;10.236;2023-04-28T12:53:08;100701.84;;;16.98;36.73
49072;BME280;52656;52.610;10.236;2023-04-28T12:55:34;100697.06;;;16.49;37.20
49072;BME280;52656;52.610;10.236;2023-04-28T12:57:59;100695.44;;;16.46;37.29
49072;BME280;52656;52.610;10.236;2023-04-28T13:00:24;100686.72;;;16.71;37.21
49072;BME280;52656;52.610;10.236;2023-04-28T13:02:50;100684.16;;;17.22;36.51
49072;BME280;52656;52.610;10.236;2023-04-28T13:05:17;100674.66;;;17.69;35.61